Anna, Illinois
Current Conditions -  °F | °C
As of 6:25 PM on Wednesday 26 Nov 2014 (Local Time) from KMDH Reporting Station
Haze Haze  
Wind Chill: 32°   Ceiling: 700
Heat Index: 32°   Visibility: 2mi
Dew Point: 31°   Wind: 3mph
Humidity: 96%   Direction: 290°WNW
Pressure: 30.05"   Gusts: NA
Location:  37.46°N, 89.25°W
Report Text: KMDH 270025Z AUTO 29003KT 2SM BR BKN007 OVC011 00/M01 A3005 RMK AO2 SNB2355E18 CIG 004V009 P0003 T00001006
Loading
Personal Weather Stations






























Interactive Weather Map New forecast layout! Learn more

10-Day Weather Forecast

Advertisements
Track Severe Weather on mobile